Airfield :
LOGIN :

Register | Disclaimer

   EN    FR    IT 

 










Legend :    VFR   Marginal VFR   IFR   Intensive IFR   Very Intensive IFR
Visi :
Ceiling :
>= 8 km
>= 3000ft
5 to 8 km
1000 to 3000 ft
1500m to 5 km
500 to 1000 ft
800 to 1500m
200 to 500 ft
< 800m
< 200 ft
Symbols :   Thunderstorms  Fog  Heavy snow  Heavy precipitations  Wind > 20 kt
SIGMETs :     Misc.  Thunderstorms  Icing  Turbulence  Mountain Waves  Volcanic Ashes







- Airport Elevation : 20 ft


EBFN - Koksijde

CURRENT METAR :
  • 231355Z 08014KT 9999 FEW026 SCT170 BKN210 14/04 Q1014 BLU BLU

EXPIRED METARs :
  • 231325Z 08013KT 9999 FEW025 BKN220 13/04 Q1014 BLU BLU
  • 231255Z 08013KT 9999 FEW025 BKN220 13/04 Q1014 BLU BLU
  • 231225Z 07014KT 9999 FEW025 BKN210 13/05 Q1014 BLU BLU
  • 231155Z 08015KT 9999 FEW020 BKN210 13/04 Q1014 BLU BLU
  • 231125Z 07015KT 9999 FEW020 BKN210 12/04 Q1014 BLU BLU

TAF TAF EBFN
Valid from the 23 at 13:00 until the 23 at 22:00 UTC


231140Z 2313/2322 07015KT 9999 FEW025 BKN200
No reported NOTAMs for that airfield.



MET'MAP, your aeronautical weather chart ! - Copyright ORBIFLY December 2007 - Disclaimer

ORBIFLY MET'MAP TEAM :

Programming & Development : Alexandra Zaïnal
Concept & Development : Baudouin d'Aumeries
Co-Development & Prog : Marc-Olivier Méhu
Technical & hardware support : Manuel Goepfert

Contact : metmap@orbifly.com




SOURCES & CREDITS :

   NOAA